METAR AND TAF INFORMATION
METAR FOR LIPI
ADDS - METARS form results

(1338 UTC 25 January 2021)
Data provider http://aviationweather.gov/metar/data/
 
Forecast for: LIPI (RIVOLTO (IT-AFB), IT)
Text: TAF LIPI 251100Z 2512/2521 04007KT 9999 SCT030 SCT070
Forecast period: 1200 to 2100 UTC 25 January 2021
Forecast type: FROM: standard forecast or significant change
Winds: from the NE (40 degrees) at 8 MPH (7 knots; 3.6 m/s)
Visibility: 6 or more miles (10+ km)
Ceiling: at least 12,000 feet AGL
Clouds: scattered clouds at 3000 feet AGL
scattered clouds at 7000 feet AGL
Weather: no significant weather forecast for this period
Text: PROB40
Forecast period: 1200 to 1600 UTC 25 January 2021
Forecast type: TEMPORARY: The following changes expected for less than half the time period
Visibility: 4 miles (6 km)
Ceiling: 2000 feet AGL
Clouds: few clouds at 1500 feet AGL
broken clouds at 2000 feet AGL
Weather: RA  (moderate rain)

 AIRPORT MAP

 RUNWAY INFORMATION
Runway 06 Runway length 8365 ft Runway width 144 ft
Runway elevation 163 ft Runway displaced threshold 0 ft Runway heading 59
Runway 24 Runway length 8365 ft Runway width 144 ft
Runway elevation 179 ft Runway displaced threshold 0 ft Runway heading 239

 AIRPORT FREQUENCIES
Type APP Name AVIANO APP Frequency 120.125 MHZ
Type TWR Name TWR Frequency 122.1 MHZ

 AIRPORT NEAR NAVIGATION AIDS
Type TACAN Name Rivolto Frequency 110000 KHZ
Type NDB Name Rivolto Frequency 371 KHZ



Powered by Virtual Airlines Manager [v2.6.2]